Terminal Aerodrome Forecast
Issued by NWS

Home | Current Version | Previous Version | Text Only | Print | Product List | Glossary Off
Versions: 1 2 3 4 5 6 7 8 9 10 11 12 13 14 15 16 17 18 19 20 21

090
FTUS43 KGRB 151253 AAA
TAFCWA
TAF AMD
KCWA 151253Z 1513/1612 VRB03KT P6SM SKC
      TEMPO 1513/1515 1/4SM FZFG VV001
     FM151500 22005KT P6SM FEW250
     FM160800 24004KT 5SM BR SCT250=

USA.gov is the U.S. government's official web portal to all federal, state and local government web resources and services.